createdAt,value
2023-04-05T00:01:12.354Z,76.80
2023-04-05T00:03:44.266Z,77.48
2023-04-05T00:06:16.713Z,76.78
2023-04-05T00:08:50.234Z,77.02
2023-04-05T00:11:29.932Z,77.60
2023-04-05T00:14:03.063Z,77.26
2023-04-05T00:16:36.711Z,77.30
2023-04-05T00:19:08.148Z,77.01
2023-04-05T00:21:39.686Z,78.02
2023-04-05T00:24:15.365Z,77.31
2023-04-05T00:26:46.869Z,78.11
2023-04-05T00:29:18.248Z,77.94
2023-04-05T00:31:49.711Z,77.21
2023-04-05T00:34:21.155Z,77.78
2023-04-05T00:36:52.868Z,78.22
2023-04-05T00:39:24.187Z,78.28
2023-04-05T00:41:56.340Z,77.46
2023-04-05T00:44:29.037Z,77.55
2023-04-05T00:47:02.194Z,78.62
2023-04-05T00:49:35.148Z,77.86
2023-04-05T00:52:06.808Z,78.82
2023-04-05T00:54:39.207Z,78.44
2023-04-05T00:57:11.133Z,78.48
2023-04-05T00:59:43.478Z,78.52
2023-04-05T01:02:55.318Z,78.63
2023-04-05T01:05:38.576Z,78.32
2023-04-05T01:08:18.162Z,78.70
2023-04-05T01:10:55.039Z,78.95
2023-04-05T01:13:26.656Z,78.91
2023-04-05T01:15:58.511Z,78.74
2023-04-05T01:18:30.962Z,79.49
2023-04-05T01:21:23.733Z,79.18
2023-04-05T01:24:21.159Z,78.70
2023-04-05T01:26:57.287Z,79.39
2023-04-05T01:30:03.107Z,79.29
2023-04-05T01:32:40.736Z,79.31
2023-04-05T01:35:29.351Z,79.33
2023-04-05T01:38:03.665Z,79.10
2023-04-05T01:40:37.157Z,78.41
2023-04-05T01:43:17.044Z,78.69
2023-04-05T01:45:48.486Z,78.93
2023-04-05T01:48:19.888Z,79.54
2023-04-05T01:50:51.269Z,78.71
2023-04-05T01:53:22.726Z,79.12
2023-04-05T01:55:54.140Z,79.58
2023-04-05T01:58:28.194Z,79.34
2023-04-05T02:00:59.688Z,79.42
2023-04-05T02:03:31.330Z,79.23
2023-04-05T02:06:02.966Z,79.71
2023-04-05T02:08:34.356Z,79.07
2023-04-05T02:11:05.711Z,79.43
2023-04-05T02:13:37.088Z,79.85
2023-04-05T02:16:08.745Z,79.50
2023-04-05T02:18:40.173Z,79.43
2023-04-05T02:21:11.603Z,79.50
2023-04-05T02:23:44.063Z,79.84
2023-04-05T02:26:16.070Z,80.27
2023-04-05T02:28:47.627Z,79.91
2023-04-05T02:31:19.150Z,79.83
2023-04-05T02:33:51.396Z,80.42
2023-04-05T02:36:23.005Z,79.70
2023-04-05T02:38:55.205Z,80.20
2023-04-05T02:41:26.989Z,80.26
2023-04-05T02:43:59.959Z,79.73
2023-04-05T02:46:31.384Z,80.36
2023-04-05T02:49:02.747Z,80.15
2023-04-05T02:51:34.472Z,79.66
2023-04-05T02:54:06.159Z,80.34
2023-04-05T02:56:37.689Z,80.33
2023-04-05T02:59:09.267Z,80.49
2023-04-05T03:01:44.219Z,80.21
2023-04-05T03:04:17.401Z,80.58
2023-04-05T03:06:51.234Z,80.34
2023-04-05T03:09:23.319Z,80.39
2023-04-05T03:11:54.939Z,80.63
2023-04-05T03:14:26.372Z,80.52
2023-04-05T03:16:57.925Z,80.06
2023-04-05T03:19:29.368Z,80.05
2023-04-05T03:22:00.922Z,80.28
2023-04-05T03:24:32.757Z,80.25
2023-04-05T03:27:06.345Z,80.47
2023-04-05T03:29:37.974Z,80.90
2023-04-05T03:32:11.875Z,80.77
2023-04-05T03:34:44.024Z,80.93
2023-04-05T03:37:15.487Z,80.90
2023-04-05T03:39:46.910Z,81.14
2023-04-05T03:42:18.309Z,80.93
2023-04-05T03:44:53.184Z,80.71
2023-04-05T03:47:24.927Z,80.68
2023-04-05T03:49:57.401Z,81.01
2023-04-05T03:52:28.779Z,80.58
2023-04-05T03:55:00.555Z,80.97
2023-04-05T03:57:32.029Z,80.73
2023-04-05T04:00:14.121Z,81.16
2023-04-05T04:02:47.848Z,80.98
2023-04-05T04:05:21.262Z,80.95
2023-04-05T04:07:53.194Z,81.16
2023-04-05T04:10:24.595Z,81.59
2023-04-05T04:12:56.996Z,80.95
2023-04-05T04:15:28.636Z,81.97
2023-04-05T04:18:00.126Z,81.57
2023-04-05T04:20:31.654Z,81.38
2023-04-05T04:23:04.285Z,81.33
2023-04-05T04:25:38.151Z,81.15
2023-04-05T04:28:09.651Z,81.61
2023-04-05T04:30:43.337Z,81.46
2023-04-05T04:33:14.826Z,81.38
2023-04-05T04:35:47.397Z,82.28
2023-04-05T04:38:20.654Z,81.53
2023-04-05T04:40:53.950Z,82.36
2023-04-05T04:43:28.088Z,81.81
2023-04-05T04:45:59.680Z,81.49
2023-04-05T04:48:34.889Z,81.47
2023-04-05T04:51:06.555Z,81.84
2023-04-05T04:53:38.096Z,81.45
2023-04-05T04:56:10.032Z,81.77
2023-04-05T04:58:41.968Z,81.71
2023-04-05T05:01:13.409Z,81.47
2023-04-05T05:03:44.844Z,81.75
2023-04-05T05:06:24.974Z,81.65
2023-04-05T05:08:56.428Z,81.36
2023-04-05T05:11:28.913Z,82.08
2023-04-05T05:14:01.307Z,81.61
2023-04-05T05:16:33.814Z,81.94
2023-04-05T05:19:05.409Z,81.54
2023-04-05T05:21:36.980Z,81.61
2023-04-05T05:24:09.984Z,81.51
2023-04-05T05:26:41.953Z,81.73
2023-04-05T05:29:13.419Z,81.69
2023-04-05T05:31:45.028Z,81.50
2023-04-05T05:34:17.526Z,81.80
2023-04-05T05:36:50.938Z,81.34
2023-04-05T05:39:23.579Z,82.17
2023-04-05T05:41:54.953Z,81.76
2023-04-05T05:44:26.317Z,81.62
2023-04-05T05:46:58.621Z,81.60
2023-04-05T05:49:31.152Z,82.22
2023-04-05T05:52:03.934Z,81.27
2023-04-05T05:54:35.713Z,79.43
2023-04-05T05:57:07.071Z,77.22
2023-04-05T05:59:38.733Z,76.40
2023-04-05T06:02:10.600Z,75.55
2023-04-05T06:04:42.098Z,75.70
2023-04-05T06:07:13.681Z,76.38
2023-04-05T06:09:45.373Z,77.07
2023-04-05T06:12:16.704Z,77.66
2023-04-05T06:14:48.386Z,77.99
2023-04-05T06:17:19.761Z,78.36
2023-04-05T06:19:51.877Z,79.36
2023-04-05T06:22:23.631Z,79.65
2023-04-05T06:24:55.032Z,80.68
2023-04-05T06:27:26.399Z,80.41
2023-04-05T06:30:00.289Z,80.76
2023-04-05T06:32:31.767Z,81.05
2023-04-05T06:35:06.351Z,81.21
2023-04-05T06:37:37.724Z,81.27
2023-04-05T06:40:09.506Z,81.06
2023-04-05T06:42:41.230Z,80.87
2023-04-05T06:45:12.642Z,80.84
2023-04-05T06:47:44.109Z,81.37
2023-04-05T06:50:15.551Z,80.69
2023-04-05T06:52:46.941Z,80.59
2023-04-05T06:55:18.467Z,80.35
2023-04-05T06:57:49.801Z,80.32
2023-04-05T07:00:21.369Z,79.84
2023-04-05T07:02:52.846Z,80.02
2023-04-05T07:05:24.370Z,79.36
2023-04-05T07:07:57.743Z,79.07
2023-04-05T07:10:29.290Z,79.10
2023-04-05T07:13:00.868Z,78.95
2023-04-05T07:15:32.362Z,77.92
2023-04-05T07:18:04.015Z,78.10
2023-04-05T07:20:35.777Z,77.78
2023-04-05T07:23:07.292Z,76.81
2023-04-05T07:25:40.535Z,76.17
2023-04-05T07:28:11.891Z,76.27
2023-04-05T07:30:43.386Z,75.48
2023-04-05T07:33:15.131Z,75.31
2023-04-05T07:35:52.555Z,74.27
2023-04-05T07:38:24.114Z,74.33
2023-04-05T07:40:55.644Z,73.27
2023-04-05T07:43:27.049Z,73.27
2023-04-05T07:46:05.573Z,72.47
2023-04-05T07:48:36.920Z,72.51
2023-04-05T07:51:10.135Z,70.99
2023-04-05T07:53:42.781Z,71.10
2023-04-05T07:56:14.367Z,70.68
2023-04-05T07:58:47.439Z,70.22
2023-04-05T08:01:19.163Z,69.08
2023-04-05T08:03:50.581Z,67.97
2023-04-05T08:06:21.985Z,67.53
2023-04-05T08:08:53.407Z,67.13
2023-04-05T08:11:26.264Z,66.72
2023-04-05T08:13:58.092Z,65.63
2023-04-05T08:16:29.485Z,64.98
2023-04-05T08:19:01.129Z,64.12
2023-04-05T08:21:32.552Z,63.87
2023-04-05T08:24:04.062Z,63.53
2023-04-05T08:26:35.727Z,63.24
2023-04-05T08:29:07.353Z,63.41
2023-04-05T08:31:38.771Z,63.19
2023-04-05T08:34:10.226Z,62.36
2023-04-05T08:36:41.692Z,62.36
2023-04-05T08:39:15.456Z,61.45
2023-04-05T08:41:59.183Z,60.50
2023-04-05T08:44:31.598Z,61.32
2023-04-05T08:47:03.040Z,61.20
2023-04-05T08:49:34.681Z,60.65
2023-04-05T08:52:06.117Z,60.47
2023-04-05T08:54:38.579Z,60.00
2023-04-05T08:57:10.586Z,60.00
2023-04-05T08:59:44.207Z,59.62
2023-04-05T09:02:21.866Z,58.68
2023-04-05T09:04:53.896Z,59.18
2023-04-05T09:07:30.524Z,58.68
2023-04-05T09:10:03.322Z,58.15
2023-04-05T09:12:35.832Z,58.52
2023-04-05T09:15:07.564Z,57.63
2023-04-05T09:17:41.616Z,56.90
2023-04-05T09:20:13.081Z,56.79
2023-04-05T09:22:46.213Z,56.70
2023-04-05T09:25:32.656Z,56.21
2023-04-05T09:28:05.555Z,57.38
2023-04-05T09:30:37.355Z,56.97
2023-04-05T09:33:10.387Z,56.64
2023-04-05T09:35:42.154Z,56.62
2023-04-05T09:38:13.581Z,55.04
2023-04-05T09:40:47.143Z,55.47
2023-04-05T09:43:40.911Z,53.99
2023-04-05T09:46:33.979Z,53.77
2023-04-05T09:49:07.810Z,55.46
2023-04-05T09:51:39.409Z,55.48
2023-04-05T09:54:11.408Z,54.66
2023-04-05T09:56:54.902Z,53.86
2023-04-05T09:59:26.486Z,54.84
2023-04-05T10:01:57.871Z,54.24
2023-04-05T10:04:41.926Z,53.39
2023-04-05T10:07:14.868Z,53.54
2023-04-05T10:09:48.198Z,53.03
2023-04-05T10:12:28.307Z,52.52
2023-04-05T10:15:00.130Z,52.57
2023-04-05T10:17:39.090Z,52.29
2023-04-05T10:20:17.396Z,52.14
2023-04-05T10:22:51.820Z,52.22
2023-04-05T10:25:59.621Z,51.36
2023-04-05T10:28:33.960Z,52.13
2023-04-05T10:31:37.262Z,51.15
2023-04-05T10:34:20.358Z,52.75
2023-04-05T10:37:28.273Z,51.17
2023-04-05T10:40:03.382Z,52.04
2023-04-05T10:42:45.789Z,51.70
2023-04-05T10:45:19.868Z,51.92
2023-04-05T10:48:15.758Z,50.84
2023-04-05T10:50:48.486Z,51.89
2023-04-05T10:53:22.111Z,51.88
2023-04-05T10:55:55.949Z,51.08
2023-04-05T10:58:28.988Z,51.31
2023-04-05T11:01:01.514Z,50.72
2023-04-05T11:03:49.118Z,49.05
2023-04-05T11:06:30.458Z,49.77
2023-04-05T11:09:17.049Z,47.85
2023-04-05T11:11:50.858Z,48.84
2023-04-05T11:14:25.981Z,48.92
2023-04-05T11:16:58.780Z,48.29
2023-04-05T11:19:45.097Z,47.73
2023-04-05T11:22:29.158Z,48.13
2023-04-05T11:25:03.200Z,48.72
2023-04-05T11:27:37.472Z,48.28
2023-04-05T11:30:09.530Z,48.27
2023-04-05T11:32:43.464Z,48.09
2023-04-05T11:35:15.928Z,48.21
2023-04-05T11:38:17.440Z,47.25
2023-04-05T11:40:49.234Z,47.52
2023-04-05T11:43:27.666Z,47.23
2023-04-05T11:46:03.091Z,47.55
2023-04-05T11:48:34.851Z,47.83
2023-04-05T11:51:10.804Z,47.62
2023-04-05T11:53:47.132Z,47.67
2023-04-05T11:56:20.013Z,48.36
2023-04-05T11:58:51.649Z,48.25
2023-04-05T12:01:23.177Z,47.76
2023-04-05T12:03:56.094Z,48.18
2023-04-05T12:06:27.594Z,48.54
2023-04-05T12:08:59.205Z,49.20
2023-04-05T12:11:33.811Z,49.07
2023-04-05T12:14:05.194Z,48.36
2023-04-05T12:16:36.844Z,48.40
2023-04-05T12:19:08.221Z,47.56
2023-04-05T12:21:39.945Z,47.01
2023-04-05T12:24:11.470Z,46.55
2023-04-05T12:26:42.999Z,46.52
2023-04-05T12:29:14.396Z,46.14
2023-04-05T12:31:46.996Z,45.48
2023-04-05T12:34:27.759Z,45.01
2023-04-05T12:37:00.584Z,44.97
2023-04-05T12:39:33.259Z,44.89
2023-04-05T12:42:04.828Z,44.05
2023-04-05T12:44:36.597Z,44.32
2023-04-05T12:47:10.945Z,43.28
2023-04-05T12:49:42.582Z,42.71
2023-04-05T12:52:19.841Z,42.78
2023-04-05T12:54:55.560Z,43.65
2023-04-05T12:57:33.390Z,44.42
2023-04-05T13:00:05.537Z,44.73
2023-04-05T13:02:36.976Z,44.69
2023-04-05T13:05:08.806Z,44.66
2023-04-05T13:07:40.553Z,44.85
2023-04-05T13:10:11.975Z,45.20
2023-04-05T13:12:43.761Z,45.29
2023-04-05T13:15:16.638Z,45.25
2023-04-05T13:17:50.361Z,45.62
2023-04-05T13:20:22.003Z,45.14
2023-04-05T13:22:53.329Z,45.67
2023-04-05T13:25:24.992Z,45.58
2023-04-05T13:27:56.408Z,45.46
2023-04-05T13:30:27.713Z,45.72
2023-04-05T13:32:59.153Z,45.90
2023-04-05T13:35:30.979Z,46.11
2023-04-05T13:38:04.670Z,46.35
2023-04-05T13:40:36.622Z,45.71
2023-04-05T13:43:08.307Z,45.73
2023-04-05T13:45:39.902Z,45.31
2023-04-05T13:48:11.529Z,44.85
2023-04-05T13:50:43.334Z,44.32
2023-04-05T13:53:14.800Z,43.87
2023-04-05T13:55:46.304Z,43.61
2023-04-05T13:58:17.583Z,43.99
2023-04-05T14:00:48.965Z,43.70
2023-04-05T14:03:20.551Z,43.34
2023-04-05T14:05:54.666Z,43.59
2023-04-05T14:08:26.721Z,43.14
2023-04-05T14:10:58.333Z,43.63
2023-04-05T14:13:30.222Z,43.52
2023-04-05T14:16:02.178Z,43.92
2023-04-05T14:18:33.513Z,43.92
2023-04-05T14:21:04.899Z,43.41
2023-04-05T14:23:36.326Z,43.81
2023-04-05T14:26:07.892Z,43.29
2023-04-05T14:28:39.257Z,43.37
2023-04-05T14:31:10.700Z,43.46
2023-04-05T14:33:42.087Z,43.63
2023-04-05T14:36:13.610Z,43.97
2023-04-05T14:38:44.988Z,44.12
2023-04-05T14:41:16.550Z,43.74
2023-04-05T14:43:47.942Z,43.63
2023-04-05T14:46:19.493Z,43.95
2023-04-05T14:48:50.987Z,43.86
2023-04-05T14:51:23.675Z,43.95
2023-04-05T14:53:55.973Z,43.60
2023-04-05T14:56:27.783Z,44.00
2023-04-05T14:58:59.164Z,44.39
2023-04-05T15:01:30.837Z,44.38
2023-04-05T15:04:03.837Z,44.59
2023-04-05T15:06:35.478Z,44.82
2023-04-05T15:09:06.959Z,44.69
2023-04-05T15:11:39.296Z,44.80
2023-04-05T15:14:20.977Z,44.55
2023-04-05T15:17:00.406Z,44.85
2023-04-05T15:19:32.075Z,44.81
2023-04-05T15:22:04.020Z,44.92
2023-04-05T15:24:37.516Z,44.65
2023-04-05T15:27:10.250Z,45.26
2023-04-05T15:29:41.585Z,44.93
2023-04-05T15:32:12.977Z,44.93
2023-04-05T15:34:44.347Z,45.05
2023-04-05T15:37:15.713Z,45.43
2023-04-05T15:39:48.885Z,45.51
2023-04-05T15:42:21.800Z,45.49
2023-04-05T15:44:53.454Z,45.42
2023-04-05T15:47:26.144Z,45.32
2023-04-05T15:49:57.554Z,45.64
2023-04-05T15:52:28.966Z,45.10
2023-04-05T15:55:00.444Z,45.40
2023-04-05T15:57:32.103Z,45.44
2023-04-05T16:00:03.929Z,45.55
2023-04-05T16:02:37.356Z,45.59
2023-04-05T16:05:08.993Z,45.83
2023-04-05T16:07:40.638Z,46.17
2023-04-05T16:10:12.142Z,46.59
2023-04-05T16:12:43.595Z,46.34
2023-04-05T16:15:15.003Z,45.98
2023-04-05T16:17:46.767Z,46.25
2023-04-05T16:20:18.411Z,46.16
2023-04-05T16:22:50.241Z,46.49
2023-04-05T16:25:21.637Z,46.35
2023-04-05T16:27:53.010Z,46.36
2023-04-05T16:30:24.415Z,46.73
2023-04-05T16:32:56.041Z,46.68
2023-04-05T16:35:27.465Z,46.49
2023-04-05T16:37:58.871Z,46.77
2023-04-05T16:40:30.541Z,46.90
2023-04-05T16:43:02.942Z,46.39
2023-04-05T16:45:36.407Z,46.84
2023-04-05T16:48:09.054Z,47.10
2023-04-05T16:50:41.602Z,46.76
2023-04-05T16:53:14.871Z,47.16
2023-04-05T16:55:46.337Z,47.25
2023-04-05T16:58:17.914Z,47.24
2023-04-05T17:00:49.321Z,47.17
2023-04-05T17:03:21.490Z,47.41
2023-04-05T17:05:53.283Z,47.56
2023-04-05T17:08:24.716Z,47.72
2023-04-05T17:10:56.189Z,47.46
2023-04-05T17:13:27.598Z,47.47
2023-04-05T17:15:59.066Z,47.46
2023-04-05T17:18:30.489Z,47.63
2023-04-05T17:21:01.859Z,47.83
2023-04-05T17:23:33.596Z,47.72
2023-04-05T17:26:05.008Z,47.72
2023-04-05T17:28:36.328Z,47.99
2023-04-05T17:31:08.125Z,48.51
2023-04-05T17:33:40.536Z,48.30
2023-04-05T17:36:12.763Z,48.62
2023-04-05T17:38:47.026Z,48.04
2023-04-05T17:41:18.456Z,48.26
2023-04-05T17:43:50.034Z,48.78
2023-04-05T17:46:34.098Z,49.33
2023-04-05T17:49:11.996Z,49.10
2023-04-05T17:51:44.523Z,49.33
2023-04-05T17:54:16.214Z,49.63
2023-04-05T17:56:48.017Z,49.42
2023-04-05T17:59:19.444Z,49.79
2023-04-05T18:01:53.765Z,50.01
2023-04-05T18:04:26.010Z,50.71
2023-04-05T18:06:57.462Z,51.30
2023-04-05T18:09:31.205Z,51.34
2023-04-05T18:12:02.877Z,51.87
2023-04-05T18:14:37.071Z,51.65
2023-04-05T18:17:09.524Z,52.39
2023-04-05T18:19:41.380Z,52.65
2023-04-05T18:22:13.792Z,53.01
2023-04-05T18:24:45.347Z,52.76
2023-04-05T18:27:16.765Z,53.25
2023-04-05T18:29:48.428Z,53.48
2023-04-05T18:32:19.990Z,53.33
2023-04-05T18:34:51.906Z,53.82
2023-04-05T18:37:24.094Z,54.03
2023-04-05T18:39:55.717Z,54.56
2023-04-05T18:42:27.080Z,55.26
2023-04-05T18:45:00.339Z,55.01
2023-04-05T18:47:33.091Z,55.93
2023-04-05T18:50:09.780Z,56.38
2023-04-05T18:52:41.361Z,56.52
2023-04-05T18:55:13.986Z,56.81
2023-04-05T18:57:45.964Z,56.96
2023-04-05T19:00:17.581Z,57.51
2023-04-05T19:02:49.043Z,57.71
2023-04-05T19:05:21.837Z,58.37
2023-04-05T19:07:53.244Z,58.15
2023-04-05T19:10:24.764Z,58.41
2023-04-05T19:12:56.510Z,58.56
2023-04-05T19:15:27.903Z,58.97
2023-04-05T19:18:01.211Z,59.44
2023-04-05T19:20:32.975Z,59.64
2023-04-05T19:23:04.464Z,59.84
2023-04-05T19:25:36.970Z,60.20
2023-04-05T19:28:08.572Z,60.26
2023-04-05T19:30:43.617Z,60.89
2023-04-05T19:33:15.048Z,60.77
2023-04-05T19:35:47.785Z,60.59
2023-04-05T19:38:21.092Z,60.75
2023-04-05T19:40:53.220Z,61.39
2023-04-05T19:43:26.455Z,61.00
2023-04-05T19:46:00.333Z,61.54
2023-04-05T19:48:37.978Z,62.24
2023-04-05T19:51:11.212Z,61.92
2023-04-05T19:53:50.655Z,61.65
2023-04-05T19:56:25.860Z,62.35
2023-04-05T19:59:03.608Z,61.55
2023-04-05T20:01:38.705Z,62.06
2023-04-05T20:04:18.883Z,61.92
2023-04-05T20:06:56.793Z,62.44
2023-04-05T20:09:29.766Z,62.54
2023-04-05T20:12:05.563Z,62.67
2023-04-05T20:14:45.877Z,63.12
2023-04-05T20:17:19.000Z,62.75
2023-04-05T20:20:00.230Z,62.96
2023-04-05T20:22:32.498Z,62.97
2023-04-05T20:25:42.167Z,63.08
2023-04-05T20:28:31.714Z,63.98
2023-04-05T20:31:06.704Z,63.65
2023-04-05T20:33:58.539Z,64.09
2023-04-05T20:36:37.812Z,64.56
2023-04-05T20:39:09.404Z,64.14
2023-04-05T20:41:41.195Z,63.96
2023-04-05T20:44:12.759Z,64.57
2023-04-05T20:46:44.265Z,64.87
2023-04-05T20:49:16.433Z,65.01
2023-04-05T20:51:48.006Z,65.14
2023-04-05T20:54:23.956Z,65.67
2023-04-05T20:56:55.662Z,66.09
2023-04-05T20:59:27.331Z,65.58
2023-04-05T21:01:58.848Z,65.93
2023-04-05T21:04:31.019Z,66.39
2023-04-05T21:07:02.485Z,66.21
2023-04-05T21:09:34.083Z,66.25
2023-04-05T21:12:05.927Z,66.39
2023-04-05T21:14:37.523Z,67.40
2023-04-05T21:17:09.114Z,66.95
2023-04-05T21:19:40.699Z,67.73
2023-04-05T21:22:12.219Z,67.59
2023-04-05T21:24:43.663Z,67.61
2023-04-05T21:27:15.317Z,67.94
2023-04-05T21:29:46.698Z,68.14
2023-04-05T21:32:18.069Z,68.19
2023-04-05T21:34:49.875Z,68.54
2023-04-05T21:37:21.531Z,68.33
2023-04-05T21:39:52.892Z,68.81
2023-04-05T21:42:24.591Z,68.39
2023-04-05T21:44:56.073Z,68.98
2023-04-05T21:47:27.423Z,68.98
2023-04-05T21:49:59.110Z,69.33
2023-04-05T21:52:30.987Z,69.36
2023-04-05T21:55:02.735Z,69.01
2023-04-05T21:57:34.166Z,69.49
2023-04-05T22:00:10.854Z,69.53
2023-04-05T22:02:42.470Z,69.82
2023-04-05T22:05:25.647Z,69.71
2023-04-05T22:08:07.052Z,70.01
2023-04-05T22:10:38.905Z,70.24
2023-04-05T22:13:10.523Z,69.78
2023-04-05T22:15:44.042Z,70.23
2023-04-05T22:18:15.741Z,70.78
2023-04-05T22:20:47.196Z,69.92
2023-04-05T22:23:18.714Z,70.26
2023-04-05T22:25:51.684Z,70.65
2023-04-05T22:28:23.514Z,70.87
2023-04-05T22:30:55.107Z,70.69
2023-04-05T22:33:26.445Z,70.54
2023-04-05T22:35:58.164Z,70.88
2023-04-05T22:38:29.625Z,71.12
2023-04-05T22:41:01.912Z,71.09
2023-04-05T22:43:33.318Z,71.94
2023-04-05T22:46:05.270Z,71.35
2023-04-05T22:48:36.906Z,71.69
2023-04-05T22:51:08.532Z,71.84
2023-04-05T22:53:43.238Z,71.89
2023-04-05T22:56:14.878Z,71.89
2023-04-05T22:58:46.497Z,72.19
2023-04-05T23:01:18.638Z,72.23
2023-04-05T23:03:50.266Z,72.40
2023-04-05T23:06:21.604Z,72.25
2023-04-05T23:08:52.991Z,72.81
2023-04-05T23:11:24.650Z,72.27
2023-04-05T23:13:56.259Z,73.09
2023-04-05T23:16:27.918Z,72.81
2023-04-05T23:18:59.406Z,72.79
2023-04-05T23:21:31.395Z,73.00
2023-04-05T23:24:02.783Z,72.46
2023-04-05T23:26:34.347Z,73.27
2023-04-05T23:29:05.819Z,72.91
2023-04-05T23:31:37.364Z,72.91
2023-04-05T23:34:09.029Z,73.45
2023-04-05T23:36:40.413Z,73.18
2023-04-05T23:39:12.895Z,72.98
2023-04-05T23:41:44.572Z,73.28
2023-04-05T23:44:15.955Z,73.46
2023-04-05T23:46:47.403Z,73.19
2023-04-05T23:49:20.254Z,73.57
2023-04-05T23:51:51.691Z,73.48
2023-04-05T23:54:23.245Z,73.86
2023-04-05T23:56:54.942Z,73.43
2023-04-05T23:59:26.654Z,74.81
